createdAt,value
2019-01-25T00:00:51.733Z,-1.90
2019-01-25T00:07:36.014Z,-1.80
2019-01-25T00:14:21.162Z,-1.80
2019-01-25T00:21:09.625Z,-1.90
2019-01-25T00:27:53.933Z,-1.80
2019-01-25T00:34:44.676Z,-1.90
2019-01-25T00:41:30.350Z,-1.90
2019-01-25T00:48:16.074Z,-1.90
2019-01-25T00:55:00.317Z,-1.90
2019-01-25T01:01:44.575Z,-1.90
2019-01-25T01:08:28.814Z,-2.00
2019-01-25T01:15:13.246Z,-2.00
2019-01-25T01:21:57.486Z,-1.90
2019-01-25T01:28:48.035Z,-2.00
2019-01-25T01:35:34.725Z,-2.00
2019-01-25T01:42:18.979Z,-2.00
2019-01-25T01:49:03.255Z,-2.00
2019-01-25T01:55:47.506Z,-2.10
2019-01-25T02:02:31.733Z,-2.10
2019-01-25T02:09:15.986Z,-2.10
2019-01-25T02:16:00.206Z,-2.00
2019-01-25T02:22:44.448Z,-2.00
2019-01-25T02:29:28.723Z,-2.00
2019-01-25T02:36:12.938Z,-2.00
2019-01-25T02:42:57.169Z,-2.00
2019-01-25T02:49:41.397Z,-2.00
2019-01-25T02:56:25.623Z,-2.00
2019-01-25T03:03:09.948Z,-2.00
2019-01-25T03:09:54.161Z,-2.00
2019-01-25T03:16:38.422Z,-2.00
2019-01-25T03:23:22.630Z,-2.00
2019-01-25T03:30:08.302Z,-2.10
2019-01-25T03:36:52.535Z,-2.10
2019-01-25T03:43:36.819Z,-2.20
2019-01-25T03:50:23.208Z,-2.30
2019-01-25T03:57:07.420Z,-2.50
2019-01-25T04:03:52.247Z,-2.80
2019-01-25T04:10:37.293Z,-3.20
2019-01-25T04:17:21.519Z,-3.70
2019-01-25T04:24:08.615Z,-4.00
2019-01-25T04:30:55.831Z,-4.30
2019-01-25T04:37:40.034Z,-4.50
2019-01-25T04:44:24.266Z,-4.50
2019-01-25T04:51:08.742Z,-4.40
2019-01-25T04:57:52.986Z,-4.30
2019-01-25T05:04:37.202Z,-4.10
2019-01-25T05:11:21.430Z,-4.10
2019-01-25T05:18:06.083Z,-4.00
2019-01-25T05:24:50.932Z,-3.80
2019-01-25T05:31:35.136Z,-3.60
2019-01-25T05:38:19.344Z,-3.50
2019-01-25T05:45:09.182Z,-3.40
2019-01-25T05:51:53.379Z,-3.30
2019-01-25T06:52:33.650Z,-2.80
2019-01-25T06:59:22.230Z,-2.80
2019-01-25T07:06:11.132Z,-2.70
2019-01-25T07:12:57.966Z,-2.70
2019-01-25T07:19:42.193Z,-2.70
2019-01-25T07:26:26.446Z,-2.70
2019-01-25T07:33:10.656Z,-2.60
2019-01-25T07:39:54.913Z,-2.50
2019-01-25T07:46:39.116Z,-2.30
2019-01-25T07:53:23.363Z,-2.40
2019-01-25T08:00:08.230Z,-2.30
2019-01-25T08:06:52.490Z,-2.30
2019-01-25T08:13:42.827Z,-2.00
2019-01-25T08:20:27.061Z,-1.90
2019-01-25T08:27:11.332Z,-1.80
2019-01-25T08:33:55.531Z,-1.60
2019-01-25T08:40:41.884Z,-1.10
2019-01-25T08:47:24.001Z,-0.40
2019-01-25T08:54:08.188Z,-0.30
2019-01-25T09:00:52.394Z,1.20
2019-01-25T09:07:36.634Z,2.40
2019-01-25T09:14:20.845Z,1.80
2019-01-25T09:21:05.098Z,1.80
2019-01-25T09:27:49.314Z,4.00
2019-01-25T09:34:33.509Z,4.50
2019-01-25T09:41:17.736Z,4.70
2019-01-25T09:48:01.941Z,4.40
2019-01-25T09:54:46.189Z,4.90
2019-01-25T10:01:31.960Z,4.60
2019-01-25T10:08:16.162Z,3.60
2019-01-25T10:15:00.385Z,3.00
2019-01-25T10:21:47.409Z,2.70
2019-01-25T10:28:32.737Z,2.90
2019-01-25T10:35:17.548Z,3.20
2019-01-25T10:42:02.338Z,4.00
2019-01-25T10:48:46.546Z,4.10
2019-01-25T10:55:30.774Z,4.00
2019-01-25T11:02:14.985Z,3.90
2019-01-25T11:08:59.218Z,3.90
2019-01-25T11:15:43.447Z,4.30
2019-01-25T11:22:27.742Z,4.30
2019-01-25T11:29:11.906Z,4.20
2019-01-25T11:35:56.890Z,4.50
2019-01-25T11:42:41.581Z,4.00
2019-01-25T11:49:25.789Z,3.60
2019-01-25T11:56:10.142Z,4.00
2019-01-25T12:17:33.801Z,4.50
2019-01-25T12:24:18.022Z,4.60
2019-01-25T12:31:03.313Z,4.60
2019-01-25T12:37:48.401Z,4.60
2019-01-25T12:44:32.629Z,4.40
2019-01-25T12:51:23.138Z,4.20
2019-01-25T12:58:07.421Z,4.70
2019-01-25T13:04:51.621Z,4.10
2019-01-25T13:11:35.837Z,3.70
2019-01-25T13:18:20.101Z,3.80
2019-01-25T13:25:04.482Z,3.60
2019-01-25T13:31:48.743Z,3.30
2019-01-25T13:38:32.993Z,2.90
2019-01-25T13:45:18.041Z,3.10
2019-01-25T13:52:03.477Z,3.10
2019-01-25T14:15:06.058Z,2.80
2019-01-25T14:21:50.380Z,2.70
2019-01-25T14:28:34.629Z,2.80
2019-01-25T14:35:38.084Z,2.70
2019-01-25T14:42:22.338Z,2.30
2019-01-25T14:49:07.146Z,2.00
2019-01-25T14:56:07.311Z,1.90
2019-01-25T15:02:51.568Z,1.80
2019-01-25T15:09:36.085Z,2.00
2019-01-25T15:16:20.399Z,2.30
2019-01-25T15:23:05.594Z,2.10
2019-01-25T15:29:49.801Z,2.10
2019-01-25T15:36:34.451Z,2.10
2019-01-25T15:43:18.678Z,2.10
2019-01-25T15:50:03.016Z,2.10
2019-01-25T15:56:48.271Z,2.00
2019-01-25T16:03:32.506Z,1.90
2019-01-25T16:10:17.762Z,1.70
2019-01-25T16:17:01.982Z,1.60
2019-01-25T16:23:46.221Z,1.60
2019-01-25T16:30:34.337Z,1.60
2019-01-25T16:37:18.594Z,1.60
2019-01-25T16:44:02.844Z,1.50
2019-01-25T16:50:47.133Z,1.50
2019-01-25T16:57:31.354Z,1.50
2019-01-25T17:04:15.590Z,1.50
2019-01-25T17:10:59.834Z,1.50
2019-01-25T17:18:10.534Z,1.50
2019-01-25T17:32:00.951Z,1.30
2019-01-25T17:38:45.397Z,1.30
2019-01-25T17:45:29.659Z,1.20
2019-01-25T17:52:13.930Z,1.10
2019-01-25T17:59:00.321Z,1.10
2019-01-25T18:05:44.673Z,1.10
2019-01-25T18:12:28.943Z,1.10
2019-01-25T18:19:13.669Z,1.10
2019-01-25T18:26:06.457Z,1.10
2019-01-25T18:32:50.790Z,1.10
2019-01-25T18:39:35.929Z,1.10
2019-01-25T18:46:24.302Z,1.10
2019-01-25T18:53:08.533Z,1.20
2019-01-25T18:59:52.875Z,1.10
2019-01-25T19:06:37.195Z,1.20
2019-01-25T19:13:24.956Z,1.20
2019-01-25T19:20:11.067Z,1.20
2019-01-25T19:27:28.069Z,1.20
2019-01-25T19:34:20.460Z,1.20
2019-01-25T19:41:06.553Z,1.20
2019-01-25T19:48:07.650Z,1.20
2019-01-25T19:55:00.246Z,1.10
2019-01-25T20:09:24.062Z,1.10
2019-01-25T20:16:13.058Z,1.20
2019-01-25T20:23:04.445Z,1.20
2019-01-25T20:29:50.025Z,1.20
2019-01-25T20:36:35.593Z,1.20
2019-01-25T20:43:21.007Z,1.20
2019-01-25T20:50:08.914Z,1.20
2019-01-25T20:57:07.135Z,1.20
2019-01-25T21:03:51.343Z,1.10
2019-01-25T21:10:35.599Z,1.10
2019-01-25T21:17:19.841Z,1.20
2019-01-25T21:24:04.225Z,1.20
2019-01-25T21:30:48.484Z,1.20
2019-01-25T21:37:32.758Z,1.20
2019-01-25T21:44:16.969Z,1.20
2019-01-25T21:51:01.214Z,1.20
2019-01-25T21:57:45.501Z,1.30
2019-01-25T22:04:29.743Z,1.30
2019-01-25T22:11:14.057Z,1.30
2019-01-25T22:17:58.349Z,1.30
2019-01-25T22:24:43.110Z,1.40
2019-01-25T22:31:27.872Z,1.40
2019-01-25T22:38:12.321Z,1.40
2019-01-25T22:44:56.565Z,1.50
2019-01-25T22:51:40.995Z,1.50
2019-01-25T22:58:25.218Z,1.50
2019-01-25T23:05:24.846Z,1.50
2019-01-25T23:12:28.193Z,1.50
2019-01-25T23:19:13.370Z,1.60
2019-01-25T23:25:58.024Z,1.60
2019-01-25T23:32:56.442Z,1.60
2019-01-25T23:39:42.577Z,1.50
2019-01-25T23:46:28.814Z,1.60
2019-01-25T23:53:13.217Z,1.50
2019-01-25T23:59:57.791Z,1.50
